Miguel Oliver — ECLX — position and weather

sailwx.info

Track history (hours):
 
Tides and Currents Weather Stations Pressure Air Temp Water Temp Dewpoint Dewpoint Depression Visibility Wind Speed Wind Dir Waves Ship Positions

Oceanographic research ship Miguel Oliver (Spain)

Ship's website: http://www.mapa.es/es/pesca/pags/miguel_web/index.htm

Last reported at 2017-Jun-26 19:00 UTC. Time now 2017-Jun-26 19:09 UTC.
Position N 40°43' E 002°45'.

Length 70 m; draft 5.7 m.

Type: Other ship. MMSI: 225322000.

Date/timePositionNaut miles runAvg speedWind from/ knotsBaromVisibWave heightAir tempDewpointWater temp
2017-Jun-26 19:00N 40°43' E 002°45'611.9
2017-Jun-26 18:30N 40°37' E 002°43'611.7
2017-Jun-26 18:00N 40°32' E 002°41'611.6
2017-Jun-26 17:30N 40°26' E 002°38'611.7
2017-Jun-26 17:00N 40°21' E 002°36'611.6
2017-Jun-26 16:30N 40°15' E 002°34'611.7
2017-Jun-26 16:00N 40°10' E 002°31'611.8
2017-Jun-26 15:30N 40°04' E 002°29'611.4
2017-Jun-26 15:00N 39°58' E 002°27'4 7.7
2017-Jun-26 14:30N 39°55' E 002°25'2 1.9
2017-Jun-26 13:30N 39°53' E 002°24'0 0.0
2017-Jun-26 13:00N 39°53' E 002°24'0 0.1
2017-Jun-26 12:30N 39°53' E 002°24'4 7.9
2017-Jun-26 12:00N 39°49' E 002°23'611.7
2017-Jun-26 11:30N 39°44' E 002°21'611.7
2017-Jun-26 11:00N 39°38' E 002°18'611.1
2017-Jun-26 10:30N 39°33' E 002°18'612.2
2017-Jun-26 10:01N 39°29' E 002°24'611.7
2017-Jun-26 09:30N 39°26' E 002°31'511.0
2017-Jun-26 09:00N 39°30' E 002°36'3 6.4
2017-Jun-26 08:30N 39°33' E 002°38'0 0.2
2017-Jun-26 08:00N 39°33' E 002°38'0 0.0
2017-Jun-26 07:30N 39°33' E 002°38'0 0.0
2017-Jun-26 07:00N 39°33' E 002°38'0 0.0
2017-Jun-26 06:28N 39°33' E 002°38'0 0.0
2017-Jun-26 05:58N 39°33' E 002°38'0 0.0
2017-Jun-26 05:28N 39°33' E 002°38'0 0.0
2017-Jun-26 04:56N 39°33' E 002°38'0 0.0
2017-Jun-26 04:29N 39°33' E 002°38'0 0.0
2017-Jun-26 03:59N 39°33' E 002°38'0 0.0
2017-Jun-26 03:27N 39°33' E 002°38'0 0.0
2017-Jun-26 03:00N 39°33' E 002°38'0 0.0
2017-Jun-26 02:30N 39°33' E 002°38'0 0.0
2017-Jun-26 01:58N 39°33' E 002°38'0 0.0
2017-Jun-26 01:28N 39°33' E 002°38'0 0.0
2017-Jun-26 00:58N 39°33' E 002°38'0 0.0
2017-Jun-26 00:29N 39°33' E 002°38'0 0.0
2017-Jun-25 23:56N 39°33' E 002°38'0 0.0
2017-Jun-25 23:29N 39°33' E 002°38'0 0.0
2017-Jun-25 23:00N 39°33' E 002°38'0 0.0
2017-Jun-25 22:30N 39°33' E 002°38'0 0.0
2017-Jun-25 21:58N 39°33' E 002°38'0 0.0
2017-Jun-25 21:28N 39°33' E 002°38'0 0.0
2017-Jun-25 20:58N 39°33' E 002°38'0 0.0
2017-Jun-25 20:29N 39°33' E 002°38'0 0.0
2017-Jun-25 19:59N 39°33' E 002°38'0 0.0
2017-Jun-25 19:29N 39°33' E 002°38'0 0.0
2017-Jun-25 19:00N 39°33' E 002°38'0 0.0
2017-Jun-25 18:30N 39°33' E 002°38'0 0.0
2017-Jun-25 18:00N 39°33' E 002°38'0 0.0
2017-Jun-25 17:31N 39°33' E 002°38'0 0.0
2017-Jun-25 17:01N 39°33' E 002°38'1 1.5
2017-Jun-25 16:31N 39°33' E 002°39'510.8
2017-Jun-25 16:00N 39°28' E 002°39'611.5
2017-Jun-25 15:31N 39°22' E 002°40'611.5
2017-Jun-25 15:00N 39°16' E 002°41'611.6
2017-Jun-25 14:30N 39°10' E 002°43'6 5.8
2017-Jun-25 13:25N 39°14' E 002°36'0 0.0
2017-Jun-25 13:00N 39°14' E 002°36'1 1.1
2017-Jun-25 12:30N 39°14' E 002°36'2 3.7
2017-Jun-25 12:00N 39°16' E 002°36'2 3.5
2017-Jun-25 11:30N 39°14' E 002°38'2 3.8
2017-Jun-25 11:00N 39°14' E 002°40'2 3.8
2017-Jun-25 10:30N 39°15' E 002°38'0 0.7
2017-Jun-25 10:00N 39°15' E 002°39'0 0.4
2017-Jun-25 09:30N 39°14' E 002°39'1 1.9
2017-Jun-25 09:01N 39°15' E 002°38'2 3.9
2017-Jun-25 08:30N 39°16' E 002°35'4 7.6
2017-Jun-25 08:01N 39°19' E 002°36'510.5
2017-Jun-25 07:30N 39°25' E 002°37'510.5
2017-Jun-25 07:00N 39°30' E 002°38'3 6.0
2017-Jun-25 06:31N 39°33' E 002°38'0 0.1
2017-Jun-25 06:00N 39°33' E 002°38'0 0.0
2017-Jun-25 05:30N 39°33' E 002°38'0 0.0
2017-Jun-25 05:00N 39°33' E 002°38'0 0.0
2017-Jun-25 04:30N 39°33' E 002°38'0 0.0
2017-Jun-25 04:00N 39°33' E 002°38'0 0.0
2017-Jun-25 03:31N 39°33' E 002°38'0 0.0
2017-Jun-25 03:00N 39°33' E 002°38'0 0.0
2017-Jun-25 02:30N 39°33' E 002°38'0 0.0
2017-Jun-25 02:00N 39°33' E 002°38'0 0.0
2017-Jun-25 01:31N 39°33' E 002°38'0 0.0
2017-Jun-25 01:00N 39°33' E 002°38'0 0.0
2017-Jun-25 00:31N 39°33' E 002°38'0 0.0
2017-Jun-25 00:00N 39°33' E 002°38'0 0.0
2017-Jun-24 23:30N 39°33' E 002°38'0 0.0
2017-Jun-24 23:00N 39°33' E 002°38'0 0.0
2017-Jun-24 22:30N 39°33' E 002°38'0 0.0
2017-Jun-24 22:00N 39°33' E 002°38'0 0.0
2017-Jun-24 21:31N 39°33' E 002°38'0 0.0
2017-Jun-24 21:00N 39°33' E 002°38'0 0.0
2017-Jun-24 20:30N 39°33' E 002°38'0 0.0
2017-Jun-24 20:00N 39°33' E 002°38'0 0.0
2017-Jun-24 19:30N 39°33' E 002°38'0 0.0
2017-Jun-24 19:01N 39°33' E 002°38'0 0.0
2017-Jun-24 18:31N 39°33' E 002°38'0 1.0
2017-Jun-24 18:00N 39°33' E 002°38'2 3.2
2017-Jun-24 17:29N 39°32' E 002°36'0 0.2
2017-Jun-24 16:53N 39°32' E 002°36'0 0.2
2017-Jun-24 16:27N 39°32' E 002°36'0 0.0
2017-Jun-24 16:00N 39°32' E 002°36'0 0.0
2017-Jun-24 15:30N 39°32' E 002°36'0 0.0
2017-Jun-24 14:58N 39°32' E 002°36'0 0.0
2017-Jun-24 13:58N 39°32' E 002°36'0 0.0
2017-Jun-24 13:29N 39°32' E 002°36'0 0.0
2017-Jun-24 12:59N 39°32' E 002°36'0 0.0
2017-Jun-24 12:29N 39°32' E 002°36'0 0.0
2017-Jun-24 11:54N 39°32' E 002°36'0 0.0
2017-Jun-24 11:30N 39°32' E 002°36'0 0.0
2017-Jun-24 11:00N 39°32' E 002°36'0 0.0
2017-Jun-24 10:28N 39°32' E 002°36'0 0.0
2017-Jun-24 09:58N 39°32' E 002°36'0 0.0
2017-Jun-24 09:28N 39°32' E 002°36'0 0.0
2017-Jun-24 08:53N 39°32' E 002°36'0 0.0
2017-Jun-24 08:17N 39°32' E 002°36'0 0.0
2017-Jun-24 07:53N 39°32' E 002°36'0 0.0
2017-Jun-24 07:30N 39°32' E 002°36'0 0.2
2017-Jun-24 07:00N 39°32' E 002°36'2 3.0
2017-Jun-24 06:30N 39°33' E 002°38'0 0.5
2017-Jun-24 06:00N 39°33' E 002°38'0 0.0
2017-Jun-24 05:30N 39°33' E 002°38'0 0.0
2017-Jun-24 04:58N 39°33' E 002°38'0 0.0
2017-Jun-24 04:28N 39°33' E 002°38'0 0.0
2017-Jun-24 03:58N 39°33' E 002°38'0 0.0
2017-Jun-24 03:29N 39°33' E 002°38'0 0.0
2017-Jun-24 02:59N 39°33' E 002°38'0 0.0
2017-Jun-24 02:29N 39°33' E 002°38'0 0.0
2017-Jun-24 02:00N 39°33' E 002°38'0 0.0
2017-Jun-24 01:30N 39°33' E 002°38'0 0.0
2017-Jun-24 01:00N 39°33' E 002°38'0 0.0
2017-Jun-24 00:31N 39°33' E 002°38'0 0.0
2017-Jun-23 23:58N 39°33' E 002°38'0 0.0
2017-Jun-23 23:28N 39°33' E 002°38'0 0.0
2017-Jun-23 22:59N 39°33' E 002°38'0 0.0
2017-Jun-23 22:29N 39°33' E 002°38'0 0.0
2017-Jun-23 21:59N 39°33' E 002°38'0 0.0
2017-Jun-23 21:30N 39°33' E 002°38'0 0.0
2017-Jun-23 20:54N 39°33' E 002°38'0 0.0
2017-Jun-23 20:27N 39°33' E 002°38'0 0.0
2017-Jun-23 20:01N 39°33' E 002°38'0 0.0
2017-Jun-23 19:28N 39°33' E 002°38'0 0.0
2017-Jun-23 18:58N 39°33' E 002°38'0 0.0
2017-Jun-23 18:29N 39°33' E 002°38'0 0.0
2017-Jun-23 17:59N 39°33' E 002°38'0 0.0
2017-Jun-23 17:23N 39°33' E 002°38'0 0.0
2017-Jun-23 17:00N 39°33' E 002°38'0 0.0
2017-Jun-23 16:30N 39°33' E 002°38'0 0.0
2017-Jun-23 16:00N 39°33' E 002°38'0 0.0
2017-Jun-23 15:31N 39°33' E 002°38'0 0.0
2017-Jun-23 14:58N 39°33' E 002°38'0 0.0
2017-Jun-23 13:59N 39°33' E 002°38'0 0.0
2017-Jun-23 13:29N 39°33' E 002°38'0 0.0
2017-Jun-23 12:59N 39°33' E 002°38'0 0.0
2017-Jun-23 12:30N 39°33' E 002°38'0 0.0
2017-Jun-23 11:54N 39°33' E 002°38'0 0.0
2017-Jun-23 11:30N 39°33' E 002°38'0 0.0
2017-Jun-23 11:01N 39°33' E 002°38'0 0.0
2017-Jun-23 10:28N 39°33' E 002°38'0 0.0
2017-Jun-23 09:58N 39°33' E 002°38'0 0.0
2017-Jun-23 09:29N 39°33' E 002°38'0 0.0
2017-Jun-23 08:59N 39°33' E 002°38'0 0.0
2017-Jun-23 08:26N 39°33' E 002°38'0 0.0
2017-Jun-23 08:00N 39°33' E 002°38'0 0.0
2017-Jun-23 07:30N 39°33' E 002°38'0 0.0
2017-Jun-23 07:00N 39°33' E 002°38'0 0.0
2017-Jun-23 06:31N 39°33' E 002°38'0 0.0
2017-Jun-23 05:58N 39°33' E 002°38'0 0.0
2017-Jun-23 05:28N 39°33' E 002°38'0 0.0
2017-Jun-23 04:59N 39°33' E 002°38'0 0.0
2017-Jun-23 04:29N 39°33' E 002°38'0 0.0
2017-Jun-23 03:56N 39°33' E 002°38'0 0.0
2017-Jun-23 03:30N 39°33' E 002°38'0 0.0
2017-Jun-23 03:00N 39°33' E 002°38'0 0.0
2017-Jun-23 02:30N 39°33' E 002°38'0 0.0
2017-Jun-23 02:01N 39°33' E 002°38'0 0.0
2017-Jun-23 01:28N 39°33' E 002°38'0 0.0
2017-Jun-23 00:58N 39°33' E 002°38'0 0.0
2017-Jun-23 00:29N 39°33' E 002°38'0 0.0
2017-Jun-22 23:59N 39°33' E 002°38'0 0.0
2017-Jun-22 23:29N 39°33' E 002°38'0 0.0
2017-Jun-22 23:00N 39°33' E 002°38'0 0.0
2017-Jun-22 22:30N 39°33' E 002°38'0 0.0
2017-Jun-22 22:00N 39°33' E 002°38'0 0.0
2017-Jun-22 21:28N 39°33' E 002°38'0 0.0
2017-Jun-22 20:58N 39°33' E 002°38'0 0.0
2017-Jun-22 20:22N 39°33' E 002°38'0 0.0
2017-Jun-22 19:59N 39°33' E 002°38'0 0.0
2017-Jun-22 19:29N 39°33' E 002°38'0 0.0
2017-Jun-22 18:59N 39°33' E 002°38'0 0.0
2017-Jun-22 18:30N 39°33' E 002°38'0 0.0
2017-Jun-22 18:00N 39°33' E 002°38'0 0.0
2017-Jun-22 17:30N 39°33' E 002°38'0 0.0
2017-Jun-22 16:58N 39°33' E 002°38'0 0.0
2017-Jun-22 16:19N 39°33' E 002°38'0 0.0
2017-Jun-22 15:58N 39°33' E 002°38'0 0.0
2017-Jun-22 15:29N 39°33' E 002°38'0 0.0
2017-Jun-22 14:59N 39°33' E 002°38'0 0.0
2017-Jun-22 14:29N 39°33' E 002°38'0 0.0
2017-Jun-22 13:30N 39°33' E 002°38'0 0.0
2017-Jun-22 13:00N 39°33' E 002°38'0 0.0
2017-Jun-22 12:28N 39°33' E 002°38'0 0.0
2017-Jun-22 11:58N 39°33' E 002°38'0 0.0
2017-Jun-22 11:28N 39°33' E 002°38'0 0.0
2017-Jun-22 10:59N 39°33' E 002°38'0 0.0
2017-Jun-22 10:29N 39°33' E 002°38'0 0.0
2017-Jun-22 09:59N 39°33' E 002°38'0 0.0
2017-Jun-22 09:30N 39°33' E 002°38'0 0.0
2017-Jun-22 09:00N 39°33' E 002°38'0 0.0
2017-Jun-22 08:30N 39°33' E 002°38'0 0.0
2017-Jun-22 07:58N 39°33' E 002°38'0 0.0
2017-Jun-22 07:28N 39°33' E 002°38'0 0.0
2017-Jun-22 06:58N 39°33' E 002°38'0 0.0
2017-Jun-22 06:29N 39°33' E 002°38'0 0.0
2017-Jun-22 05:59N 39°33' E 002°38'0 0.0
2017-Jun-22 05:29N 39°33' E 002°38'0 0.0
2017-Jun-22 05:00N 39°33' E 002°38'0 0.0
2017-Jun-22 04:30N 39°33' E 002°38'0 0.0
2017-Jun-22 03:57N 39°33' E 002°38'0 0.0
2017-Jun-22 03:28N 39°33' E 002°38'0 0.0
2017-Jun-22 02:58N 39°33' E 002°38'0 0.0
2017-Jun-22 02:28N 39°33' E 002°38'0 0.0
2017-Jun-22 01:59N 39°33' E 002°38'0 0.0
2017-Jun-22 01:29N 39°33' E 002°38'0 0.0
2017-Jun-22 00:59N 39°33' E 002°38'0 0.0
2017-Jun-22 00:30N 39°33' E 002°38'0 0.0
2017-Jun-21 23:54N 39°33' E 002°38'0 0.0
2017-Jun-21 23:30N 39°33' E 002°38'0 0.0
2017-Jun-21 22:58N 39°33' E 002°38'0 0.0
2017-Jun-21 22:28N 39°33' E 002°38'0 0.0
2017-Jun-21 21:58N 39°33' E 002°38'0 0.0
2017-Jun-21 21:29N 39°33' E 002°38'0 0.0
2017-Jun-21 20:59N 39°33' E 002°38'0 0.0
2017-Jun-21 20:29N 39°33' E 002°38'0 0.0
2017-Jun-21 20:00N 39°33' E 002°38'0 0.0
2017-Jun-21 19:27N 39°33' E 002°38'0 0.0
2017-Jun-21 19:00N 39°33' E 002°38'0 0.0
2017-Jun-21 18:28N 39°33' E 002°38'0 0.0
2017-Jun-21 17:58N 39°33' E 002°38'0 0.0
2017-Jun-21 17:28N 39°33' E 002°38'0 0.0
2017-Jun-21 16:59N 39°33' E 002°38'0 0.0
2017-Jun-21 16:29N 39°33' E 002°38'0 0.0
2017-Jun-21 15:59N 39°33' E 002°38'0 0.0
2017-Jun-21 15:30N 39°33' E 002°38'0 0.0
2017-Jun-21 15:00N 39°33' E 002°38'0 0.0
2017-Jun-21 14:27N 39°33' E 002°38'0 0.0
2017-Jun-21 13:28N 39°33' E 002°38'0 0.0
2017-Jun-21 12:58N 39°33' E 002°38'0 0.0
2017-Jun-21 12:29N 39°33' E 002°38'0 0.0
2017-Jun-21 11:59N 39°33' E 002°38'0 0.0
2017-Jun-21 11:26N 39°33' E 002°38'0 0.0
2017-Jun-21 10:57N 39°33' E 002°38'0 0.0
2017-Jun-21 10:30N 39°33' E 002°38'0 0.0
2017-Jun-21 10:00N 39°33' E 002°38'0 0.0
2017-Jun-21 09:25N 39°33' E 002°38'0 0.0
2017-Jun-21 08:58N 39°33' E 002°38'0 0.0
2017-Jun-21 08:28N 39°33' E 002°38'0 0.0
2017-Jun-21 07:56N 39°33' E 002°38'0 0.0
2017-Jun-21 07:29N 39°33' E 002°38'0 0.0
2017-Jun-21 06:59N 39°33' E 002°38'0 0.0
2017-Jun-21 06:30N 39°33' E 002°38'1 1.4
2017-Jun-21 06:00N 39°32' E 002°38'4 7.2
2017-Jun-21 05:30N 39°29' E 002°37'4 7.2
2017-Jun-21 05:00N 39°25' E 002°36'0 0.5
2017-Jun-21 04:30N 39°25' E 002°36'0 1.0
2017-Jun-21 04:00N 39°25' E 002°35'2 3.8
2017-Jun-21 03:30N 39°25' E 002°33'2 4.1
2017-Jun-21 03:00N 39°26' E 002°30'2 4.0
2017-Jun-21 02:30N 39°26' E 002°28'2 4.0
2017-Jun-21 02:00N 39°26' E 002°25'3 6.3
2017-Jun-21 01:30N 39°27' E 002°21'3 6.3
2017-Jun-21 01:00N 39°27' E 002°17'3 6.5
2017-Jun-21 00:29N 39°27' E 002°13'0 0.7
2017-Jun-21 00:00N 39°27' E 002°12'0 0.9
2017-Jun-20 23:30N 39°27' E 002°13'0 1.0
2017-Jun-20 23:00N 39°27' E 002°14'0 1.0
2017-Jun-20 22:30N 39°27' E 002°14'0 0.8
2017-Jun-20 22:00N 39°27' E 002°15'0 0.8
2017-Jun-20 21:30N 39°26' E 002°15'0 0.9
2017-Jun-20 21:00N 39°26' E 002°16'0 0.8
2017-Jun-20 20:30N 39°26' E 002°16'0 0.7
2017-Jun-20 20:00N 39°26' E 002°17'0 0.7
2017-Jun-20 19:30N 39°26' E 002°17'0 0.7
2017-Jun-20 19:00N 39°26' E 002°18'0 0.6
2017-Jun-20 18:30N 39°26' E 002°18'0 0.5
2017-Jun-20 18:00N 39°26' E 002°18'0 0.4
2017-Jun-20 17:30N 39°26' E 002°19'0 0.4
2017-Jun-20 17:00N 39°26' E 002°19'0 0.5
2017-Jun-20 16:30N 39°26' E 002°19'0 0.6
2017-Jun-20 16:00N 39°26' E 002°19'0 0.7
2017-Jun-20 15:30N 39°25' E 002°20'0 0.8
2017-Jun-20 15:00N 39°25' E 002°20'0 0.8
2017-Jun-20 14:30N 39°25' E 002°20'1 0.8
2017-Jun-20 13:30N 39°24' E 002°21'0 0.9
2017-Jun-20 13:00N 39°24' E 002°21'0 0.9
2017-Jun-20 12:30N 39°24' E 002°22'0 0.7
2017-Jun-20 12:00N 39°23' E 002°22'1 2.6
2017-Jun-20 11:30N 39°22' E 002°21'2 3.3
2017-Jun-20 11:00N 39°21' E 002°20'3 6.2
2017-Jun-20 10:30N 39°23' E 002°17'4 8.2
2017-Jun-20 10:01N 39°26' E 002°14'1 2.4
2017-Jun-20 09:30N 39°27' E 002°15'3 6.4
2017-Jun-20 09:00N 39°29' E 002°18'4 4.4
2017-Jun-20 08:05N 39°33' E 002°19'1 3.9
2017-Jun-20 07:56N 39°34' E 002°19'410.3
2017-Jun-20 07:30N 39°30' E 002°23'510.7
2017-Jun-20 07:00N 39°27' E 002°28'4 7.2
2017-Jun-20 06:30N 39°25' E 002°32'1 2.7
2017-Jun-20 06:00N 39°25' E 002°30'0 0.9
2017-Jun-20 05:30N 39°24' E 002°31'0 0.8
2017-Jun-20 05:00N 39°24' E 002°31'0 0.8
2017-Jun-20 04:30N 39°24' E 002°32'0 0.8
2017-Jun-20 04:00N 39°24' E 002°32'0 0.7
2017-Jun-20 03:30N 39°24' E 002°33'0 0.7
2017-Jun-20 03:00N 39°24' E 002°33'0 0.9
2017-Jun-20 02:30N 39°24' E 002°34'2 3.9
2017-Jun-20 02:00N 39°23' E 002°36'3 6.2
2017-Jun-20 01:30N 39°23' E 002°40'3 6.7
2017-Jun-20 01:00N 39°21' E 002°44'3 5.5
2017-Jun-20 00:30N 39°19' E 002°47'0 0.5
2017-Jun-20 00:00N 39°19' E 002°47'0 0.5
2017-Jun-19 23:30N 39°19' E 002°47'0 0.5
2017-Jun-19 23:00N 39°19' E 002°47'0 0.5
2017-Jun-19 22:30N 39°19' E 002°48'0 0.5
2017-Jun-19 22:01N 39°19' E 002°48'0 0.5
2017-Jun-19 21:30N 39°19' E 002°48'0 0.5
2017-Jun-19 21:00N 39°19' E 002°49'0 0.4
2017-Jun-19 20:30N 39°19' E 002°49'1 2.5
2017-Jun-19 20:00N 39°19' E 002°50'3 6.5
2017-Jun-19 19:31N 39°17' E 002°54'3 6.5
2017-Jun-19 19:00N 39°16' E 002°58'3 6.5
2017-Jun-19 18:30N 39°15' E 003°02'3 6.3
2017-Jun-19 18:00N 39°15' E 003°06'3 6.3
2017-Jun-19 17:30N 39°16' E 003°10'3 6.3
2017-Jun-19 17:00N 39°18' E 003°13'3 5.9
2017-Jun-19 16:30N 39°20' E 003°16'3 4.9
2017-Jun-19 15:59N 39°22' E 003°17'2 4.7
2017-Jun-19 15:30N 39°24' E 003°19'2 4.7
2017-Jun-19 15:00N 39°26' E 003°21'4 4.2
2017-Jun-19 13:59N 39°29' E 003°24'5 8.9
2017-Jun-19 13:28N 39°26' E 003°20'1 2.2
2017-Jun-19 12:54N 39°27' E 003°21'1 2.9
2017-Jun-19 12:26N 39°26' E 003°20'510.2
2017-Jun-19 11:57N 39°21' E 003°18'2 5.5
2017-Jun-19 11:30N 39°19' E 003°16'2 3.3
2017-Jun-19 11:00N 39°18' E 003°15'4 7.2
2017-Jun-19 10:31N 39°21' E 003°18'510.7
2017-Jun-19 10:00N 39°26' E 003°20'4 7.8
2017-Jun-19 09:30N 39°28' E 003°24'3 6.5
2017-Jun-19 09:00N 39°30' E 003°28'2 3.3
2017-Jun-19 08:30N 39°31' E 003°30'2 3.4
2017-Jun-19 07:59N 39°32' E 003°31'2 3.6
2017-Jun-19 07:30N 39°31' E 003°29'610.5
2017-Jun-19 06:56N 39°37' E 003°32'3 4.6
2017-Jun-19 06:14N 39°40' E 003°32'1 3.8
2017-Jun-19 05:53N 39°41' E 003°31'1 2.6
2017-Jun-19 05:29N 39°41' E 003°32'0 0.5
2017-Jun-19 04:53N 39°41' E 003°32'0 0.5
2017-Jun-19 04:28N 39°41' E 003°32'4 2.3
2017-Jun-19 02:36N 39°43' E 003°37'1 6.3
2017-Jun-19 02:28N 39°43' E 003°38'3 6.4
2017-Jun-19 01:58N 39°45' E 003°42'7 6.4
2017-Jun-19 00:52N 39°45' E 003°51'2 5.1
2017-Jun-19 00:26N 39°46' E 003°54'2 5.3
2017-Jun-19 00:00N 39°46' E 003°57'3 5.4
2017-Jun-18 23:29N 39°46' E 004°00'2 5.2
2017-Jun-18 23:00N 39°47' E 004°03'3 5.1
2017-Jun-18 22:26N 39°47' E 004°07'3 4.9
2017-Jun-18 21:55N 39°48' E 004°10'2 4.6
2017-Jun-18 21:27N 39°49' E 004°13'0 0.2
2017-Jun-18 20:53N 39°49' E 004°13'7 0.8
2017-Jun-18 12:49N 39°51' E 004°05'18 2.6
2017-Jun-18 05:43N 39°36' E 004°18'22 3.3
2017-Jun-17 23:12N 39°51' E 003°57'0 0.6
2017-Jun-17 22:59N 39°51' E 003°57'3 4.8
2017-Jun-17 22:23N 39°54' E 003°56'1 2.9
2017-Jun-17 21:59N 39°55' E 003°55'0 0.1
2017-Jun-17 20:39N 39°55' E 003°55'0 0.1
2017-Jun-17 20:27N 39°55' E 003°55'0 0.2
2017-Jun-17 20:00N 39°55' E 003°55'0 0.2
2017-Jun-17 19:23N 39°54' E 003°55'4 4.4
2017-Jun-17 18:23N 39°53' E 003°50'2 5.9
2017-Jun-17 17:59N 39°54' E 003°47'4 6.9
2017-Jun-17 17:25N 39°57' E 003°43'3 6.8
2017-Jun-17 17:00N 39°58' E 003°40'3 6.8
2017-Jun-17 16:30N 39°60' E 003°36'8 0.6
2017-Jun-17 02:48N 40°04' E 003°45'6 5.1
2017-Jun-17 01:34N 39°58' E 003°43'1 6.8
2017-Jun-17 01:23N 39°57' E 003°42'2 4.0
2017-Jun-17 01:00N 39°55' E 003°42'0 0.5
2017-Jun-17 00:23N 39°55' E 003°42'1 0.6
2017-Jun-16 23:18N 39°56' E 003°43'0 0.7
2017-Jun-16 23:00N 39°56' E 003°43'2 0.8
2017-Jun-16 20:09N 39°58' E 003°45'0 0.7
2017-Jun-16 20:00N 39°58' E 003°45'1 0.8
2017-Jun-16 19:20N 39°58' E 003°45'  
Track history (hours):
 
Tides and Currents Weather Stations Pressure Air Temp Water Temp Dewpoint Dewpoint Depression Visibility Wind Speed Wind Dir Waves Ship Positions

Oceanographic research ship Miguel Oliver (Spain)

Ship's website: http://www.mapa.es/es/pesca/pags/miguel_web/index.htm

Last reported at 2017-Jun-26 19:00 UTC. Time now 2017-Jun-26 19:09 UTC.
Position N 40°43' E 002°45'.

Length 70 m; draft 5.7 m.

Type: Other ship. MMSI: 225322000.

Date/timePositionNaut miles runAvg speedWind from/ knotsBaromVisibWave heightAir tempDewpointWater temp
2017-Jun-26 19:00N 40°43' E 002°45'611.9
2017-Jun-26 18:30N 40°37' E 002°43'611.7
2017-Jun-26 18:00N 40°32' E 002°41'611.6
2017-Jun-26 17:30N 40°26' E 002°38'611.7
2017-Jun-26 17:00N 40°21' E 002°36'611.6
2017-Jun-26 16:30N 40°15' E 002°34'611.7
2017-Jun-26 16:00N 40°10' E 002°31'611.8
2017-Jun-26 15:30N 40°04' E 002°29'611.4
2017-Jun-26 15:00N 39°58' E 002°27'4 7.7
2017-Jun-26 14:30N 39°55' E 002°25'2 1.9
2017-Jun-26 13:30N 39°53' E 002°24'0 0.0
2017-Jun-26 13:00N 39°53' E 002°24'0 0.1
2017-Jun-26 12:30N 39°53' E 002°24'4 7.9
2017-Jun-26 12:00N 39°49' E 002°23'611.7
2017-Jun-26 11:30N 39°44' E 002°21'611.7
2017-Jun-26 11:00N 39°38' E 002°18'611.1
2017-Jun-26 10:30N 39°33' E 002°18'612.2
2017-Jun-26 10:01N 39°29' E 002°24'611.7
2017-Jun-26 09:30N 39°26' E 002°31'511.0
2017-Jun-26 09:00N 39°30' E 002°36'3 6.4
2017-Jun-26 08:30N 39°33' E 002°38'0 0.2
2017-Jun-26 08:00N 39°33' E 002°38'0 0.0
2017-Jun-26 07:30N 39°33' E 002°38'0 0.0
2017-Jun-26 07:00N 39°33' E 002°38'0 0.0
2017-Jun-26 06:28N 39°33' E 002°38'0 0.0
2017-Jun-26 05:58N 39°33' E 002°38'0 0.0
2017-Jun-26 05:28N 39°33' E 002°38'0 0.0
2017-Jun-26 04:56N 39°33' E 002°38'0 0.0
2017-Jun-26 04:29N 39°33' E 002°38'0 0.0
2017-Jun-26 03:59N 39°33' E 002°38'0 0.0
2017-Jun-26 03:27N 39°33' E 002°38'0 0.0
2017-Jun-26 03:00N 39°33' E 002°38'0 0.0
2017-Jun-26 02:30N 39°33' E 002°38'0 0.0
2017-Jun-26 01:58N 39°33' E 002°38'0 0.0
2017-Jun-26 01:28N 39°33' E 002°38'0 0.0
2017-Jun-26 00:58N 39°33' E 002°38'0 0.0
2017-Jun-26 00:29N 39°33' E 002°38'0 0.0
2017-Jun-25 23:56N 39°33' E 002°38'0 0.0
2017-Jun-25 23:29N 39°33' E 002°38'0 0.0
2017-Jun-25 23:00N 39°33' E 002°38'0 0.0
2017-Jun-25 22:30N 39°33' E 002°38'0 0.0
2017-Jun-25 21:58N 39°33' E 002°38'0 0.0
2017-Jun-25 21:28N 39°33' E 002°38'0 0.0
2017-Jun-25 20:58N 39°33' E 002°38'0 0.0
2017-Jun-25 20:29N 39°33' E 002°38'0 0.0
2017-Jun-25 19:59N 39°33' E 002°38'0 0.0
2017-Jun-25 19:29N 39°33' E 002°38'0 0.0
2017-Jun-25 19:00N 39°33' E 002°38'0 0.0
2017-Jun-25 18:30N 39°33' E 002°38'0 0.0
2017-Jun-25 18:00N 39°33' E 002°38'0 0.0
2017-Jun-25 17:31N 39°33' E 002°38'0 0.0
2017-Jun-25 17:01N 39°33' E 002°38'1 1.5
2017-Jun-25 16:31N 39°33' E 002°39'510.8
2017-Jun-25 16:00N 39°28' E 002°39'611.5
2017-Jun-25 15:31N 39°22' E 002°40'611.5
2017-Jun-25 15:00N 39°16' E 002°41'611.6
2017-Jun-25 14:30N 39°10' E 002°43'6 5.8
2017-Jun-25 13:25N 39°14' E 002°36'0 0.0
2017-Jun-25 13:00N 39°14' E 002°36'1 1.1
2017-Jun-25 12:30N 39°14' E 002°36'2 3.7
2017-Jun-25 12:00N 39°16' E 002°36'2 3.5
2017-Jun-25 11:30N 39°14' E 002°38'2 3.8
2017-Jun-25 11:00N 39°14' E 002°40'2 3.8
2017-Jun-25 10:30N 39°15' E 002°38'0 0.7
2017-Jun-25 10:00N 39°15' E 002°39'0 0.4
2017-Jun-25 09:30N 39°14' E 002°39'1 1.9
2017-Jun-25 09:01N 39°15' E 002°38'2 3.9
2017-Jun-25 08:30N 39°16' E 002°35'4 7.6
2017-Jun-25 08:01N 39°19' E 002°36'510.5
2017-Jun-25 07:30N 39°25' E 002°37'510.5
2017-Jun-25 07:00N 39°30' E 002°38'3 6.0
2017-Jun-25 06:31N 39°33' E 002°38'0 0.1
2017-Jun-25 06:00N 39°33' E 002°38'0 0.0
2017-Jun-25 05:30N 39°33' E 002°38'0 0.0
2017-Jun-25 05:00N 39°33' E 002°38'0 0.0
2017-Jun-25 04:30N 39°33' E 002°38'0 0.0
2017-Jun-25 04:00N 39°33' E 002°38'0 0.0
2017-Jun-25 03:31N 39°33' E 002°38'0 0.0
2017-Jun-25 03:00N 39°33' E 002°38'0 0.0
2017-Jun-25 02:30N 39°33' E 002°38'0 0.0
2017-Jun-25 02:00N 39°33' E 002°38'0 0.0
2017-Jun-25 01:31N 39°33' E 002°38'0 0.0
2017-Jun-25 01:00N 39°33' E 002°38'0 0.0
2017-Jun-25 00:31N 39°33' E 002°38'0 0.0
2017-Jun-25 00:00N 39°33' E 002°38'0 0.0
2017-Jun-24 23:30N 39°33' E 002°38'0 0.0
2017-Jun-24 23:00N 39°33' E 002°38'0 0.0
2017-Jun-24 22:30N 39°33' E 002°38'0 0.0
2017-Jun-24 22:00N 39°33' E 002°38'0 0.0
2017-Jun-24 21:31N 39°33' E 002°38'0 0.0
2017-Jun-24 21:00N 39°33' E 002°38'0 0.0
2017-Jun-24 20:30N 39°33' E 002°38'0 0.0
2017-Jun-24 20:00N 39°33' E 002°38'0 0.0
2017-Jun-24 19:30N 39°33' E 002°38'0 0.0
2017-Jun-24 19:01N 39°33' E 002°38'0 0.0
2017-Jun-24 18:31N 39°33' E 002°38'0 1.0
2017-Jun-24 18:00N 39°33' E 002°38'2 3.2
2017-Jun-24 17:29N 39°32' E 002°36'0 0.2
2017-Jun-24 16:53N 39°32' E 002°36'0 0.2
2017-Jun-24 16:27N 39°32' E 002°36'0 0.0
2017-Jun-24 16:00N 39°32' E 002°36'0 0.0
2017-Jun-24 15:30N 39°32' E 002°36'0 0.0
2017-Jun-24 14:58N 39°32' E 002°36'0 0.0
2017-Jun-24 13:58N 39°32' E 002°36'0 0.0
2017-Jun-24 13:29N 39°32' E 002°36'0 0.0
2017-Jun-24 12:59N 39°32' E 002°36'0 0.0
2017-Jun-24 12:29N 39°32' E 002°36'0 0.0
2017-Jun-24 11:54N 39°32' E 002°36'0 0.0
2017-Jun-24 11:30N 39°32' E 002°36'0 0.0
2017-Jun-24 11:00N 39°32' E 002°36'0 0.0
2017-Jun-24 10:28N 39°32' E 002°36'0 0.0
2017-Jun-24 09:58N 39°32' E 002°36'0 0.0
2017-Jun-24 09:28N 39°32' E 002°36'0 0.0
2017-Jun-24 08:53N 39°32' E 002°36'0 0.0
2017-Jun-24 08:17N 39°32' E 002°36'0 0.0
2017-Jun-24 07:53N 39°32' E 002°36'0 0.0
2017-Jun-24 07:30N 39°32' E 002°36'0 0.2
2017-Jun-24 07:00N 39°32' E 002°36'2 3.0
2017-Jun-24 06:30N 39°33' E 002°38'0 0.5
2017-Jun-24 06:00N 39°33' E 002°38'0 0.0
2017-Jun-24 05:30N 39°33' E 002°38'0 0.0
2017-Jun-24 04:58N 39°33' E 002°38'0 0.0
2017-Jun-24 04:28N 39°33' E 002°38'0 0.0
2017-Jun-24 03:58N 39°33' E 002°38'0 0.0
2017-Jun-24 03:29N 39°33' E 002°38'0 0.0
2017-Jun-24 02:59N 39°33' E 002°38'0 0.0
2017-Jun-24 02:29N 39°33' E 002°38'0 0.0
2017-Jun-24 02:00N 39°33' E 002°38'0 0.0
2017-Jun-24 01:30N 39°33' E 002°38'0 0.0
2017-Jun-24 01:00N 39°33' E 002°38'0 0.0
2017-Jun-24 00:31N 39°33' E 002°38'0 0.0
2017-Jun-23 23:58N 39°33' E 002°38'0 0.0
2017-Jun-23 23:28N 39°33' E 002°38'0 0.0
2017-Jun-23 22:59N 39°33' E 002°38'0 0.0
2017-Jun-23 22:29N 39°33' E 002°38'0 0.0
2017-Jun-23 21:59N 39°33' E 002°38'0 0.0
2017-Jun-23 21:30N 39°33' E 002°38'0 0.0
2017-Jun-23 20:54N 39°33' E 002°38'0 0.0
2017-Jun-23 20:27N 39°33' E 002°38'0 0.0
2017-Jun-23 20:01N 39°33' E 002°38'0 0.0
2017-Jun-23 19:28N 39°33' E 002°38'0 0.0
2017-Jun-23 18:58N 39°33' E 002°38'0 0.0
2017-Jun-23 18:29N 39°33' E 002°38'0 0.0
2017-Jun-23 17:59N 39°33' E 002°38'0 0.0
2017-Jun-23 17:23N 39°33' E 002°38'0 0.0
2017-Jun-23 17:00N 39°33' E 002°38'0 0.0
2017-Jun-23 16:30N 39°33' E 002°38'0 0.0
2017-Jun-23 16:00N 39°33' E 002°38'0 0.0
2017-Jun-23 15:31N 39°33' E 002°38'0 0.0
2017-Jun-23 14:58N 39°33' E 002°38'0 0.0
2017-Jun-23 13:59N 39°33' E 002°38'0 0.0
2017-Jun-23 13:29N 39°33' E 002°38'0 0.0
2017-Jun-23 12:59N 39°33' E 002°38'0 0.0
2017-Jun-23 12:30N 39°33' E 002°38'0 0.0
2017-Jun-23 11:54N 39°33' E 002°38'0 0.0
2017-Jun-23 11:30N 39°33' E 002°38'0 0.0
2017-Jun-23 11:01N 39°33' E 002°38'0 0.0
2017-Jun-23 10:28N 39°33' E 002°38'0 0.0
2017-Jun-23 09:58N 39°33' E 002°38'0 0.0
2017-Jun-23 09:29N 39°33' E 002°38'0 0.0
2017-Jun-23 08:59N 39°33' E 002°38'0 0.0
2017-Jun-23 08:26N 39°33' E 002°38'0 0.0
2017-Jun-23 08:00N 39°33' E 002°38'0 0.0
2017-Jun-23 07:30N 39°33' E 002°38'0 0.0
2017-Jun-23 07:00N 39°33' E 002°38'0 0.0
2017-Jun-23 06:31N 39°33' E 002°38'0 0.0
2017-Jun-23 05:58N 39°33' E 002°38'0 0.0
2017-Jun-23 05:28N 39°33' E 002°38'0 0.0
2017-Jun-23 04:59N 39°33' E 002°38'0 0.0
2017-Jun-23 04:29N 39°33' E 002°38'0 0.0
2017-Jun-23 03:56N 39°33' E 002°38'0 0.0
2017-Jun-23 03:30N 39°33' E 002°38'0 0.0
2017-Jun-23 03:00N 39°33' E 002°38'0 0.0
2017-Jun-23 02:30N 39°33' E 002°38'0 0.0
2017-Jun-23 02:01N 39°33' E 002°38'0 0.0
2017-Jun-23 01:28N 39°33' E 002°38'0 0.0
2017-Jun-23 00:58N 39°33' E 002°38'0 0.0
2017-Jun-23 00:29N 39°33' E 002°38'0 0.0
2017-Jun-22 23:59N 39°33' E 002°38'0 0.0
2017-Jun-22 23:29N 39°33' E 002°38'0 0.0
2017-Jun-22 23:00N 39°33' E 002°38'0 0.0
2017-Jun-22 22:30N 39°33' E 002°38'0 0.0
2017-Jun-22 22:00N 39°33' E 002°38'0 0.0
2017-Jun-22 21:28N 39°33' E 002°38'0 0.0
2017-Jun-22 20:58N 39°33' E 002°38'0 0.0
2017-Jun-22 20:22N 39°33' E 002°38'0 0.0
2017-Jun-22 19:59N 39°33' E 002°38'0 0.0
2017-Jun-22 19:29N 39°33' E 002°38'0 0.0
2017-Jun-22 18:59N 39°33' E 002°38'0 0.0
2017-Jun-22 18:30N 39°33' E 002°38'0 0.0
2017-Jun-22 18:00N 39°33' E 002°38'0 0.0
2017-Jun-22 17:30N 39°33' E 002°38'0 0.0
2017-Jun-22 16:58N 39°33' E 002°38'0 0.0
2017-Jun-22 16:19N 39°33' E 002°38'0 0.0
2017-Jun-22 15:58N 39°33' E 002°38'0 0.0
2017-Jun-22 15:29N 39°33' E 002°38'0 0.0
2017-Jun-22 14:59N 39°33' E 002°38'0 0.0
2017-Jun-22 14:29N 39°33' E 002°38'0 0.0
2017-Jun-22 13:30N 39°33' E 002°38'0 0.0
2017-Jun-22 13:00N 39°33' E 002°38'0 0.0
2017-Jun-22 12:28N 39°33' E 002°38'0 0.0
2017-Jun-22 11:58N 39°33' E 002°38'0 0.0
2017-Jun-22 11:28N 39°33' E 002°38'0 0.0
2017-Jun-22 10:59N 39°33' E 002°38'0 0.0
2017-Jun-22 10:29N 39°33' E 002°38'0 0.0
2017-Jun-22 09:59N 39°33' E 002°38'0 0.0
2017-Jun-22 09:30N 39°33' E 002°38'0 0.0
2017-Jun-22 09:00N 39°33' E 002°38'0 0.0
2017-Jun-22 08:30N 39°33' E 002°38'0 0.0
2017-Jun-22 07:58N 39°33' E 002°38'0 0.0
2017-Jun-22 07:28N 39°33' E 002°38'0 0.0
2017-Jun-22 06:58N 39°33' E 002°38'0 0.0
2017-Jun-22 06:29N 39°33' E 002°38'0 0.0
2017-Jun-22 05:59N 39°33' E 002°38'0 0.0
2017-Jun-22 05:29N 39°33' E 002°38'0 0.0
2017-Jun-22 05:00N 39°33' E 002°38'0 0.0
2017-Jun-22 04:30N 39°33' E 002°38'0 0.0
2017-Jun-22 03:57N 39°33' E 002°38'0 0.0
2017-Jun-22 03:28N 39°33' E 002°38'0 0.0
2017-Jun-22 02:58N 39°33' E 002°38'0 0.0
2017-Jun-22 02:28N 39°33' E 002°38'0 0.0
2017-Jun-22 01:59N 39°33' E 002°38'0 0.0
2017-Jun-22 01:29N 39°33' E 002°38'0 0.0
2017-Jun-22 00:59N 39°33' E 002°38'0 0.0
2017-Jun-22 00:30N 39°33' E 002°38'0 0.0
2017-Jun-21 23:54N 39°33' E 002°38'0 0.0
2017-Jun-21 23:30N 39°33' E 002°38'0 0.0
2017-Jun-21 22:58N 39°33' E 002°38'0 0.0
2017-Jun-21 22:28N 39°33' E 002°38'0 0.0
2017-Jun-21 21:58N 39°33' E 002°38'0 0.0
2017-Jun-21 21:29N 39°33' E 002°38'0 0.0
2017-Jun-21 20:59N 39°33' E 002°38'0 0.0
2017-Jun-21 20:29N 39°33' E 002°38'0 0.0
2017-Jun-21 20:00N 39°33' E 002°38'0 0.0
2017-Jun-21 19:27N 39°33' E 002°38'0 0.0
2017-Jun-21 19:00N 39°33' E 002°38'0 0.0
2017-Jun-21 18:28N 39°33' E 002°38'0 0.0
2017-Jun-21 17:58N 39°33' E 002°38'0 0.0
2017-Jun-21 17:28N 39°33' E 002°38'0 0.0
2017-Jun-21 16:59N 39°33' E 002°38'0 0.0
2017-Jun-21 16:29N 39°33' E 002°38'0 0.0
2017-Jun-21 15:59N 39°33' E 002°38'0 0.0
2017-Jun-21 15:30N 39°33' E 002°38'0 0.0
2017-Jun-21 15:00N 39°33' E 002°38'0 0.0
2017-Jun-21 14:27N 39°33' E 002°38'0 0.0
2017-Jun-21 13:28N 39°33' E 002°38'0 0.0
2017-Jun-21 12:58N 39°33' E 002°38'0 0.0
2017-Jun-21 12:29N 39°33' E 002°38'0 0.0
2017-Jun-21 11:59N 39°33' E 002°38'0 0.0
2017-Jun-21 11:26N 39°33' E 002°38'0 0.0
2017-Jun-21 10:57N 39°33' E 002°38'0 0.0
2017-Jun-21 10:30N 39°33' E 002°38'0 0.0
2017-Jun-21 10:00N 39°33' E 002°38'0 0.0
2017-Jun-21 09:25N 39°33' E 002°38'0 0.0
2017-Jun-21 08:58N 39°33' E 002°38'0 0.0
2017-Jun-21 08:28N 39°33' E 002°38'0 0.0
2017-Jun-21 07:56N 39°33' E 002°38'0 0.0
2017-Jun-21 07:29N 39°33' E 002°38'0 0.0
2017-Jun-21 06:59N 39°33' E 002°38'0 0.0
2017-Jun-21 06:30N 39°33' E 002°38'1 1.4
2017-Jun-21 06:00N 39°32' E 002°38'4 7.2
2017-Jun-21 05:30N 39°29' E 002°37'4 7.2
2017-Jun-21 05:00N 39°25' E 002°36'0 0.5
2017-Jun-21 04:30N 39°25' E 002°36'0 1.0
2017-Jun-21 04:00N 39°25' E 002°35'2 3.8
2017-Jun-21 03:30N 39°25' E 002°33'2 4.1
2017-Jun-21 03:00N 39°26' E 002°30'2 4.0
2017-Jun-21 02:30N 39°26' E 002°28'2 4.0
2017-Jun-21 02:00N 39°26' E 002°25'3 6.3
2017-Jun-21 01:30N 39°27' E 002°21'3 6.3
2017-Jun-21 01:00N 39°27' E 002°17'3 6.5
2017-Jun-21 00:29N 39°27' E 002°13'0 0.7
2017-Jun-21 00:00N 39°27' E 002°12'0 0.9
2017-Jun-20 23:30N 39°27' E 002°13'0 1.0
2017-Jun-20 23:00N 39°27' E 002°14'0 1.0
2017-Jun-20 22:30N 39°27' E 002°14'0 0.8
2017-Jun-20 22:00N 39°27' E 002°15'0 0.8
2017-Jun-20 21:30N 39°26' E 002°15'0 0.9
2017-Jun-20 21:00N 39°26' E 002°16'0 0.8
2017-Jun-20 20:30N 39°26' E 002°16'0 0.7
2017-Jun-20 20:00N 39°26' E 002°17'0 0.7
2017-Jun-20 19:30N 39°26' E 002°17'0 0.7
2017-Jun-20 19:00N 39°26' E 002°18'0 0.6
2017-Jun-20 18:30N 39°26' E 002°18'0 0.5
2017-Jun-20 18:00N 39°26' E 002°18'0 0.4
2017-Jun-20 17:30N 39°26' E 002°19'0 0.4
2017-Jun-20 17:00N 39°26' E 002°19'0 0.5
2017-Jun-20 16:30N 39°26' E 002°19'0 0.6
2017-Jun-20 16:00N 39°26' E 002°19'0 0.7
2017-Jun-20 15:30N 39°25' E 002°20'0 0.8
2017-Jun-20 15:00N 39°25' E 002°20'0 0.8
2017-Jun-20 14:30N 39°25' E 002°20'1 0.8
2017-Jun-20 13:30N 39°24' E 002°21'0 0.9
2017-Jun-20 13:00N 39°24' E 002°21'0 0.9
2017-Jun-20 12:30N 39°24' E 002°22'0 0.7
2017-Jun-20 12:00N 39°23' E 002°22'1 2.6
2017-Jun-20 11:30N 39°22' E 002°21'2 3.3
2017-Jun-20 11:00N 39°21' E 002°20'3 6.2
2017-Jun-20 10:30N 39°23' E 002°17'4 8.2
2017-Jun-20 10:01N 39°26' E 002°14'1 2.4
2017-Jun-20 09:30N 39°27' E 002°15'3 6.4
2017-Jun-20 09:00N 39°29' E 002°18'4 4.4
2017-Jun-20 08:05N 39°33' E 002°19'1 3.9
2017-Jun-20 07:56N 39°34' E 002°19'410.3
2017-Jun-20 07:30N 39°30' E 002°23'510.7
2017-Jun-20 07:00N 39°27' E 002°28'4 7.2
2017-Jun-20 06:30N 39°25' E 002°32'1 2.7
2017-Jun-20 06:00N 39°25' E 002°30'0 0.9
2017-Jun-20 05:30N 39°24' E 002°31'0 0.8
2017-Jun-20 05:00N 39°24' E 002°31'0 0.8
2017-Jun-20 04:30N 39°24' E 002°32'0 0.8
2017-Jun-20 04:00N 39°24' E 002°32'0 0.7
2017-Jun-20 03:30N 39°24' E 002°33'0 0.7
2017-Jun-20 03:00N 39°24' E 002°33'0 0.9
2017-Jun-20 02:30N 39°24' E 002°34'2 3.9
2017-Jun-20 02:00N 39°23' E 002°36'3 6.2
2017-Jun-20 01:30N 39°23' E 002°40'3 6.7
2017-Jun-20 01:00N 39°21' E 002°44'3 5.5
2017-Jun-20 00:30N 39°19' E 002°47'0 0.5
2017-Jun-20 00:00N 39°19' E 002°47'0 0.5
2017-Jun-19 23:30N 39°19' E 002°47'0 0.5
2017-Jun-19 23:00N 39°19' E 002°47'0 0.5
2017-Jun-19 22:30N 39°19' E 002°48'0 0.5
2017-Jun-19 22:01N 39°19' E 002°48'0 0.5
2017-Jun-19 21:30N 39°19' E 002°48'0 0.5
2017-Jun-19 21:00N 39°19' E 002°49'0 0.4
2017-Jun-19 20:30N 39°19' E 002°49'1 2.5
2017-Jun-19 20:00N 39°19' E 002°50'3 6.5
2017-Jun-19 19:31N 39°17' E 002°54'3 6.5
2017-Jun-19 19:00N 39°16' E 002°58'3 6.5
2017-Jun-19 18:30N 39°15' E 003°02'3 6.3
2017-Jun-19 18:00N 39°15' E 003°06'3 6.3
2017-Jun-19 17:30N 39°16' E 003°10'3 6.3
2017-Jun-19 17:00N 39°18' E 003°13'3 5.9
2017-Jun-19 16:30N 39°20' E 003°16'3 4.9
2017-Jun-19 15:59N 39°22' E 003°17'2 4.7
2017-Jun-19 15:30N 39°24' E 003°19'2 4.7
2017-Jun-19 15:00N 39°26' E 003°21'4 4.2
2017-Jun-19 13:59N 39°29' E 003°24'5 8.9
2017-Jun-19 13:28N 39°26' E 003°20'1 2.2
2017-Jun-19 12:54N 39°27' E 003°21'1 2.9
2017-Jun-19 12:26N 39°26' E 003°20'510.2
2017-Jun-19 11:57N 39°21' E 003°18'2 5.5
2017-Jun-19 11:30N 39°19' E 003°16'2 3.3
2017-Jun-19 11:00N 39°18' E 003°15'4 7.2
2017-Jun-19 10:31N 39°21' E 003°18'510.7
2017-Jun-19 10:00N 39°26' E 003°20'4 7.8
2017-Jun-19 09:30N 39°28' E 003°24'3 6.5
2017-Jun-19 09:00N 39°30' E 003°28'2 3.3
2017-Jun-19 08:30N 39°31' E 003°30'2 3.4
2017-Jun-19 07:59N 39°32' E 003°31'2 3.6
2017-Jun-19 07:30N 39°31' E 003°29'610.5
2017-Jun-19 06:56N 39°37' E 003°32'3 4.6
2017-Jun-19 06:14N 39°40' E 003°32'1 3.8
2017-Jun-19 05:53N 39°41' E 003°31'1 2.6
2017-Jun-19 05:29N 39°41' E 003°32'0 0.5
2017-Jun-19 04:53N 39°41' E 003°32'0 0.5
2017-Jun-19 04:28N 39°41' E 003°32'4 2.3
2017-Jun-19 02:36N 39°43' E 003°37'1 6.3
2017-Jun-19 02:28N 39°43' E 003°38'3 6.4
2017-Jun-19 01:58N 39°45' E 003°42'7 6.4
2017-Jun-19 00:52N 39°45' E 003°51'2 5.1
2017-Jun-19 00:26N 39°46' E 003°54'2 5.3
2017-Jun-19 00:00N 39°46' E 003°57'3 5.4
2017-Jun-18 23:29N 39°46' E 004°00'2 5.2
2017-Jun-18 23:00N 39°47' E 004°03'3 5.1
2017-Jun-18 22:26N 39°47' E 004°07'3 4.9
2017-Jun-18 21:55N 39°48' E 004°10'2 4.6
2017-Jun-18 21:27N 39°49' E 004°13'0 0.2
2017-Jun-18 20:53N 39°49' E 004°13'7 0.8
2017-Jun-18 12:49N 39°51' E 004°05'18 2.6
2017-Jun-18 05:43N 39°36' E 004°18'22 3.3
2017-Jun-17 23:12N 39°51' E 003°57'0 0.6
2017-Jun-17 22:59N 39°51' E 003°57'3 4.8
2017-Jun-17 22:23N 39°54' E 003°56'1 2.9
2017-Jun-17 21:59N 39°55' E 003°55'0 0.1
2017-Jun-17 20:39N 39°55' E 003°55'0 0.1
2017-Jun-17 20:27N 39°55' E 003°55'0 0.2
2017-Jun-17 20:00N 39°55' E 003°55'0 0.2
2017-Jun-17 19:23N 39°54' E 003°55'4 4.4
2017-Jun-17 18:23N 39°53' E 003°50'2 5.9
2017-Jun-17 17:59N 39°54' E 003°47'4 6.9
2017-Jun-17 17:25N 39°57' E 003°43'3 6.8
2017-Jun-17 17:00N 39°58' E 003°40'3 6.8
2017-Jun-17 16:30N 39°60' E 003°36'8 0.6
2017-Jun-17 02:48N 40°04' E 003°45'6 5.1
2017-Jun-17 01:34N 39°58' E 003°43'1 6.8
2017-Jun-17 01:23N 39°57' E 003°42'2 4.0
2017-Jun-17 01:00N 39°55' E 003°42'0 0.5
2017-Jun-17 00:23N 39°55' E 003°42'1 0.6
2017-Jun-16 23:18N 39°56' E 003°43'0 0.7
2017-Jun-16 23:00N 39°56' E 003°43'2 0.8
2017-Jun-16 20:09N 39°58' E 003°45'0 0.7
2017-Jun-16 20:00N 39°58' E 003°45'1 0.8
2017-Jun-16 19:20N 39°58' E 003°45'  

Dump ship's entire track history